Terminal Aerodrome Forecast
Issued by NWS

Home | Current Version | Previous Version | Text Only | Print | Product List | Glossary On
Versions: 1 2 3 4 5 6 7 8 9 10 11 12 13 14 15 16 17 18 19 20 21
000
FTUS43 KDMX 300535
TAFOTM
TAF
KOTM 300535Z 3006/0106 06013KT 3SM BR OVC006
     FM301000 08016G24KT 5SM BR VCSH BKN022 OVC050
     FM301400 07016G25KT 2SM SHRA VCTS BKN028CB OVC060
     FM302200 14015G23KT 3SM -SHRA OVC021
     FM010200 18011G19KT P6SM OVC022=

USA.gov is the U.S. government's official web portal to all federal, state and local government web resources and services.